sensor_id;sensor_type;location;lat;lon;timestamp;temperature;humidity
42245;DHT22;27912;51.828;5.688;2023-11-21T00:01:16;7.80;99.90
42245;DHT22;27912;51.828;5.688;2023-11-21T00:03:42;7.80;99.90
42245;DHT22;27912;51.828;5.688;2023-11-21T00:06:08;7.70;99.90
42245;DHT22;27912;51.828;5.688;2023-11-21T00:08:37;7.70;99.90
42245;DHT22;27912;51.828;5.688;2023-11-21T00:11:03;7.60;99.90
42245;DHT22;27912;51.828;5.688;2023-11-21T00:13:31;7.60;99.90
42245;DHT22;27912;51.828;5.688;2023-11-21T00:15:56;7.50;99.90
42245;DHT22;27912;51.828;5.688;2023-11-21T00:18:22;7.40;99.90
42245;DHT22;27912;51.828;5.688;2023-11-21T00:20:47;7.40;99.90
42245;DHT22;27912;51.828;5.688;2023-11-21T00:23:13;7.30;99.90
42245;DHT22;27912;51.828;5.688;2023-11-21T00:25:38;7.30;99.90
42245;DHT22;27912;51.828;5.688;2023-11-21T00:28:05;7.20;99.90
42245;DHT22;27912;51.828;5.688;2023-11-21T00:30:31;7.20;99.90
42245;DHT22;27912;51.828;5.688;2023-11-21T00:32:57;7.20;99.90
42245;DHT22;27912;51.828;5.688;2023-11-21T00:35:22;7.10;99.90
42245;DHT22;27912;51.828;5.688;2023-11-21T00:37:48;7.10;99.90
42245;DHT22;27912;51.828;5.688;2023-11-21T00:40:15;7.10;99.90
42245;DHT22;27912;51.828;5.688;2023-11-21T00:42:41;7.10;99.90
42245;DHT22;27912;51.828;5.688;2023-11-21T00:45:08;7.10;99.90
42245;DHT22;27912;51.828;5.688;2023-11-21T00:47:33;7.10;99.90
42245;DHT22;27912;51.828;5.688;2023-11-21T00:49:59;7.20;99.90
42245;DHT22;27912;51.828;5.688;2023-11-21T00:52:24;7.20;99.90
42245;DHT22;27912;51.828;5.688;2023-11-21T00:54:50;7.20;99.90
42245;DHT22;27912;51.828;5.688;2023-11-21T00:57:16;7.30;99.90
42245;DHT22;27912;51.828;5.688;2023-11-21T00:59:41;7.30;99.90
42245;DHT22;27912;51.828;5.688;2023-11-21T01:02:07;7.40;99.90
42245;DHT22;27912;51.828;5.688;2023-11-21T01:04:35;7.40;99.90
42245;DHT22;27912;51.828;5.688;2023-11-21T01:07:01;7.50;99.90
42245;DHT22;27912;51.828;5.688;2023-11-21T01:09:26;7.40;99.90
42245;DHT22;27912;51.828;5.688;2023-11-21T01:11:53;7.50;99.90
42245;DHT22;27912;51.828;5.688;2023-11-21T01:14:19;7.50;99.90
42245;DHT22;27912;51.828;5.688;2023-11-21T01:16:44;7.50;99.90
42245;DHT22;27912;51.828;5.688;2023-11-21T01:19:10;7.50;99.90
42245;DHT22;27912;51.828;5.688;2023-11-21T01:21:35;7.50;99.90
42245;DHT22;27912;51.828;5.688;2023-11-21T01:24:01;7.50;99.90
42245;DHT22;27912;51.828;5.688;2023-11-21T01:26:28;7.60;99.90
42245;DHT22;27912;51.828;5.688;2023-11-21T01:28:53;7.60;99.90
42245;DHT22;27912;51.828;5.688;2023-11-21T01:31:20;7.60;99.90
42245;DHT22;27912;51.828;5.688;2023-11-21T01:33:46;7.70;99.90
42245;DHT22;27912;51.828;5.688;2023-11-21T01:36:11;7.70;99.90
42245;DHT22;27912;51.828;5.688;2023-11-21T01:38:37;7.70;99.90
42245;DHT22;27912;51.828;5.688;2023-11-21T01:41:02;7.70;99.90
42245;DHT22;27912;51.828;5.688;2023-11-21T01:43:28;7.70;99.90
42245;DHT22;27912;51.828;5.688;2023-11-21T01:45:55;7.70;99.90
42245;DHT22;27912;51.828;5.688;2023-11-21T01:48:24;7.80;99.90
42245;DHT22;27912;51.828;5.688;2023-11-21T01:50:50;7.80;99.90
42245;DHT22;27912;51.828;5.688;2023-11-21T01:53:16;7.80;99.90
42245;DHT22;27912;51.828;5.688;2023-11-21T01:55:42;7.80;99.90
42245;DHT22;27912;51.828;5.688;2023-11-21T01:58:09;7.80;99.90
42245;DHT22;27912;51.828;5.688;2023-11-21T02:00:35;7.80;99.90
42245;DHT22;27912;51.828;5.688;2023-11-21T02:03:00;7.80;99.90
42245;DHT22;27912;51.828;5.688;2023-11-21T02:05:26;7.80;99.90
42245;DHT22;27912;51.828;5.688;2023-11-21T02:07:52;7.90;99.90
42245;DHT22;27912;51.828;5.688;2023-11-21T02:10:18;7.90;99.90
42245;DHT22;27912;51.828;5.688;2023-11-21T02:12:51;7.80;99.90
42245;DHT22;27912;51.828;5.688;2023-11-21T02:15:17;7.80;99.90
42245;DHT22;27912;51.828;5.688;2023-11-21T02:17:47;7.80;99.90
42245;DHT22;27912;51.828;5.688;2023-11-21T02:20:13;7.80;99.90
42245;DHT22;27912;51.828;5.688;2023-11-21T02:22:53;7.80;99.90
42245;DHT22;27912;51.828;5.688;2023-11-21T02:25:29;7.80;99.90
42245;DHT22;27912;51.828;5.688;2023-11-21T02:27:59;7.80;99.90
42245;DHT22;27912;51.828;5.688;2023-11-21T02:30:26;7.80;99.90
42245;DHT22;27912;51.828;5.688;2023-11-21T02:32:53;7.80;99.90
42245;DHT22;27912;51.828;5.688;2023-11-21T02:35:19;7.80;99.90
42245;DHT22;27912;51.828;5.688;2023-11-21T02:37:48;7.80;99.90
42245;DHT22;27912;51.828;5.688;2023-11-21T02:40:15;7.80;99.90
42245;DHT22;27912;51.828;5.688;2023-11-21T02:42:44;7.80;99.90
42245;DHT22;27912;51.828;5.688;2023-11-21T02:45:09;7.80;99.90
42245;DHT22;27912;51.828;5.688;2023-11-21T02:47:38;7.80;99.90
42245;DHT22;27912;51.828;5.688;2023-11-21T02:50:04;7.80;99.90
42245;DHT22;27912;51.828;5.688;2023-11-21T02:52:31;7.80;99.90
42245;DHT22;27912;51.828;5.688;2023-11-21T02:54:58;7.80;99.90
42245;DHT22;27912;51.828;5.688;2023-11-21T02:57:24;7.80;99.90
42245;DHT22;27912;51.828;5.688;2023-11-21T02:59:49;7.70;99.90
42245;DHT22;27912;51.828;5.688;2023-11-21T03:02:15;7.80;99.90
42245;DHT22;27912;51.828;5.688;2023-11-21T03:04:41;7.80;99.90
42245;DHT22;27912;51.828;5.688;2023-11-21T03:07:08;7.80;99.90
42245;DHT22;27912;51.828;5.688;2023-11-21T03:09:34;7.80;99.90
42245;DHT22;27912;51.828;5.688;2023-11-21T03:12:00;7.80;99.90
42245;DHT22;27912;51.828;5.688;2023-11-21T03:14:26;7.80;99.90
42245;DHT22;27912;51.828;5.688;2023-11-21T03:16:51;7.80;99.90
42245;DHT22;27912;51.828;5.688;2023-11-21T03:19:17;7.80;99.90
42245;DHT22;27912;51.828;5.688;2023-11-21T03:21:42;7.80;99.90
42245;DHT22;27912;51.828;5.688;2023-11-21T03:24:08;7.80;99.90
42245;DHT22;27912;51.828;5.688;2023-11-21T03:26:34;7.80;99.90
42245;DHT22;27912;51.828;5.688;2023-11-21T03:28:59;7.80;99.90
42245;DHT22;27912;51.828;5.688;2023-11-21T03:31:25;7.80;99.90
42245;DHT22;27912;51.828;5.688;2023-11-21T03:33:52;7.80;99.90
42245;DHT22;27912;51.828;5.688;2023-11-21T03:36:19;7.80;99.90
42245;DHT22;27912;51.828;5.688;2023-11-21T03:38:44;7.80;99.90
42245;DHT22;27912;51.828;5.688;2023-11-21T03:41:10;7.80;99.90
42245;DHT22;27912;51.828;5.688;2023-11-21T03:43:39;7.80;99.90
42245;DHT22;27912;51.828;5.688;2023-11-21T03:46:04;7.80;99.90
42245;DHT22;27912;51.828;5.688;2023-11-21T03:48:31;7.80;99.90
42245;DHT22;27912;51.828;5.688;2023-11-21T03:50:58;7.70;99.90
42245;DHT22;27912;51.828;5.688;2023-11-21T03:53:23;7.70;99.90
42245;DHT22;27912;51.828;5.688;2023-11-21T03:55:49;7.80;99.90
42245;DHT22;27912;51.828;5.688;2023-11-21T03:58:15;7.80;99.90
42245;DHT22;27912;51.828;5.688;2023-11-21T04:00:41;7.80;99.90
42245;DHT22;27912;51.828;5.688;2023-11-21T04:03:06;7.70;99.90
42245;DHT22;27912;51.828;5.688;2023-11-21T04:05:32;7.80;99.90
42245;DHT22;27912;51.828;5.688;2023-11-21T04:07:57;7.80;99.90
42245;DHT22;27912;51.828;5.688;2023-11-21T04:10:23;7.80;99.90
42245;DHT22;27912;51.828;5.688;2023-11-21T04:12:49;7.80;99.90
42245;DHT22;27912;51.828;5.688;2023-11-21T04:15:14;7.80;99.90
42245;DHT22;27912;51.828;5.688;2023-11-21T04:17:40;7.80;99.90
42245;DHT22;27912;51.828;5.688;2023-11-21T04:20:07;7.80;99.90
42245;DHT22;27912;51.828;5.688;2023-11-21T04:22:39;7.90;99.90
42245;DHT22;27912;51.828;5.688;2023-11-21T04:25:14;7.90;99.90
42245;DHT22;27912;51.828;5.688;2023-11-21T04:27:41;7.90;99.90
42245;DHT22;27912;51.828;5.688;2023-11-21T04:30:12;7.90;99.90
42245;DHT22;27912;51.828;5.688;2023-11-21T04:32:38;7.90;99.90
42245;DHT22;27912;51.828;5.688;2023-11-21T04:35:07;7.90;99.90
42245;DHT22;27912;51.828;5.688;2023-11-21T04:37:34;7.90;99.90
42245;DHT22;27912;51.828;5.688;2023-11-21T04:39:59;8.00;99.90
42245;DHT22;27912;51.828;5.688;2023-11-21T04:42:25;7.90;99.90
42245;DHT22;27912;51.828;5.688;2023-11-21T04:44:50;7.90;99.90
42245;DHT22;27912;51.828;5.688;2023-11-21T04:47:18;8.00;99.90
42245;DHT22;27912;51.828;5.688;2023-11-21T04:49:46;7.90;99.90
42245;DHT22;27912;51.828;5.688;2023-11-21T04:52:12;8.00;99.90
42245;DHT22;27912;51.828;5.688;2023-11-21T04:54:38;8.00;99.90
42245;DHT22;27912;51.828;5.688;2023-11-21T04:57:05;8.00;99.90
42245;DHT22;27912;51.828;5.688;2023-11-21T04:59:33;8.00;99.90
42245;DHT22;27912;51.828;5.688;2023-11-21T05:01:58;8.00;99.90
42245;DHT22;27912;51.828;5.688;2023-11-21T05:04:25;8.00;99.90
42245;DHT22;27912;51.828;5.688;2023-11-21T05:06:51;8.00;99.90
42245;DHT22;27912;51.828;5.688;2023-11-21T05:09:16;8.10;99.90
42245;DHT22;27912;51.828;5.688;2023-11-21T05:11:43;8.10;99.90
42245;DHT22;27912;51.828;5.688;2023-11-21T05:14:08;8.10;99.90
42245;DHT22;27912;51.828;5.688;2023-11-21T05:16:34;8.10;99.90
42245;DHT22;27912;51.828;5.688;2023-11-21T05:19:00;8.10;99.90
42245;DHT22;27912;51.828;5.688;2023-11-21T05:21:30;8.10;99.90
42245;DHT22;27912;51.828;5.688;2023-11-21T05:23:58;8.10;99.90
42245;DHT22;27912;51.828;5.688;2023-11-21T05:26:24;8.10;99.90
42245;DHT22;27912;51.828;5.688;2023-11-21T05:28:50;8.10;99.90
42245;DHT22;27912;51.828;5.688;2023-11-21T05:31:15;8.10;99.90
42245;DHT22;27912;51.828;5.688;2023-11-21T05:33:41;8.10;99.90
42245;DHT22;27912;51.828;5.688;2023-11-21T05:36:07;8.20;99.90
42245;DHT22;27912;51.828;5.688;2023-11-21T05:38:34;8.20;99.90
42245;DHT22;27912;51.828;5.688;2023-11-21T05:41:00;8.20;99.90
42245;DHT22;27912;51.828;5.688;2023-11-21T05:43:26;8.20;99.90
42245;DHT22;27912;51.828;5.688;2023-11-21T05:45:52;8.20;99.90
42245;DHT22;27912;51.828;5.688;2023-11-21T05:48:18;8.20;99.90
42245;DHT22;27912;51.828;5.688;2023-11-21T05:50:43;8.20;99.90
42245;DHT22;27912;51.828;5.688;2023-11-21T05:53:09;8.10;99.90
42245;DHT22;27912;51.828;5.688;2023-11-21T05:55:36;8.10;99.90
42245;DHT22;27912;51.828;5.688;2023-11-21T05:58:02;8.10;99.90
42245;DHT22;27912;51.828;5.688;2023-11-21T06:00:28;8.10;99.90
42245;DHT22;27912;51.828;5.688;2023-11-21T06:02:54;8.10;99.90
42245;DHT22;27912;51.828;5.688;2023-11-21T06:05:21;8.20;99.90
42245;DHT22;27912;51.828;5.688;2023-11-21T06:07:49;8.10;99.90
42245;DHT22;27912;51.828;5.688;2023-11-21T06:10:14;8.10;99.90
42245;DHT22;27912;51.828;5.688;2023-11-21T06:12:40;8.10;99.90
42245;DHT22;27912;51.828;5.688;2023-11-21T06:15:09;8.10;99.90
42245;DHT22;27912;51.828;5.688;2023-11-21T06:17:37;8.20;99.90
42245;DHT22;27912;51.828;5.688;2023-11-21T06:20:03;8.20;99.90
42245;DHT22;27912;51.828;5.688;2023-11-21T06:22:38;8.30;99.90
42245;DHT22;27912;51.828;5.688;2023-11-21T06:25:04;8.30;99.90
42245;DHT22;27912;51.828;5.688;2023-11-21T06:27:32;8.40;99.90
42245;DHT22;27912;51.828;5.688;2023-11-21T06:29:58;8.40;99.90
42245;DHT22;27912;51.828;5.688;2023-11-21T06:32:23;8.40;99.90
42245;DHT22;27912;51.828;5.688;2023-11-21T06:34:49;8.40;99.90
42245;DHT22;27912;51.828;5.688;2023-11-21T06:37:15;8.40;99.90
42245;DHT22;27912;51.828;5.688;2023-11-21T06:39:42;8.40;99.90
42245;DHT22;27912;51.828;5.688;2023-11-21T06:42:07;8.40;99.90
42245;DHT22;27912;51.828;5.688;2023-11-21T06:44:33;8.40;99.90
42245;DHT22;27912;51.828;5.688;2023-11-21T06:46:59;8.40;99.90
42245;DHT22;27912;51.828;5.688;2023-11-21T06:49:24;8.40;99.90
42245;DHT22;27912;51.828;5.688;2023-11-21T06:51:51;8.50;99.90
42245;DHT22;27912;51.828;5.688;2023-11-21T06:54:18;8.50;99.90
42245;DHT22;27912;51.828;5.688;2023-11-21T06:56:43;8.50;99.90
42245;DHT22;27912;51.828;5.688;2023-11-21T06:59:09;8.50;99.90
42245;DHT22;27912;51.828;5.688;2023-11-21T07:01:36;8.50;99.90
42245;DHT22;27912;51.828;5.688;2023-11-21T07:04:05;8.60;99.90
42245;DHT22;27912;51.828;5.688;2023-11-21T07:06:31;8.50;99.90
42245;DHT22;27912;51.828;5.688;2023-11-21T07:08:57;8.50;99.90
42245;DHT22;27912;51.828;5.688;2023-11-21T07:11:22;8.50;99.90
42245;DHT22;27912;51.828;5.688;2023-11-21T07:13:48;8.50;99.90
42245;DHT22;27912;51.828;5.688;2023-11-21T07:16:14;8.50;99.90
42245;DHT22;27912;51.828;5.688;2023-11-21T07:18:41;8.40;99.90
42245;DHT22;27912;51.828;5.688;2023-11-21T07:21:06;8.40;99.90
42245;DHT22;27912;51.828;5.688;2023-11-21T07:23:33;8.40;99.90
42245;DHT22;27912;51.828;5.688;2023-11-21T07:25:59;8.40;99.90
42245;DHT22;27912;51.828;5.688;2023-11-21T07:28:24;8.40;99.90
42245;DHT22;27912;51.828;5.688;2023-11-21T07:30:51;8.40;99.90
42245;DHT22;27912;51.828;5.688;2023-11-21T07:33:18;8.40;99.90
42245;DHT22;27912;51.828;5.688;2023-11-21T07:35:43;8.40;99.90
42245;DHT22;27912;51.828;5.688;2023-11-21T07:38:09;8.40;99.90
42245;DHT22;27912;51.828;5.688;2023-11-21T07:40:34;8.40;99.90
42245;DHT22;27912;51.828;5.688;2023-11-21T07:43:00;8.40;99.90
42245;DHT22;27912;51.828;5.688;2023-11-21T07:45:26;8.40;99.90
42245;DHT22;27912;51.828;5.688;2023-11-21T07:47:54;8.40;99.90
42245;DHT22;27912;51.828;5.688;2023-11-21T07:50:21;8.50;99.90
42245;DHT22;27912;51.828;5.688;2023-11-21T07:52:48;8.50;99.90
42245;DHT22;27912;51.828;5.688;2023-11-21T07:55:15;8.50;99.90
42245;DHT22;27912;51.828;5.688;2023-11-21T07:57:40;8.60;99.90
42245;DHT22;27912;51.828;5.688;2023-11-21T08:00:06;8.60;99.90
42245;DHT22;27912;51.828;5.688;2023-11-21T08:02:34;8.60;99.90
42245;DHT22;27912;51.828;5.688;2023-11-21T08:05:00;8.60;99.90
42245;DHT22;27912;51.828;5.688;2023-11-21T08:07:26;8.60;99.90
42245;DHT22;27912;51.828;5.688;2023-11-21T08:09:51;8.60;99.90
42245;DHT22;27912;51.828;5.688;2023-11-21T08:12:18;8.60;99.90
42245;DHT22;27912;51.828;5.688;2023-11-21T08:14:43;8.70;99.90
42245;DHT22;27912;51.828;5.688;2023-11-21T08:17:10;8.70;99.90
42245;DHT22;27912;51.828;5.688;2023-11-21T08:19:36;8.70;99.90
42245;DHT22;27912;51.828;5.688;2023-11-21T08:22:02;8.70;99.90
42245;DHT22;27912;51.828;5.688;2023-11-21T08:24:28;8.80;99.90
42245;DHT22;27912;51.828;5.688;2023-11-21T08:26:54;8.80;99.90
42245;DHT22;27912;51.828;5.688;2023-11-21T08:29:20;8.90;99.90
42245;DHT22;27912;51.828;5.688;2023-11-21T08:31:45;8.90;99.90
42245;DHT22;27912;51.828;5.688;2023-11-21T08:34:12;8.90;99.90
42245;DHT22;27912;51.828;5.688;2023-11-21T08:36:43;9.00;99.90
42245;DHT22;27912;51.828;5.688;2023-11-21T08:39:08;9.00;99.90
42245;DHT22;27912;51.828;5.688;2023-11-21T08:41:35;9.00;99.90
42245;DHT22;27912;51.828;5.688;2023-11-21T08:44:02;9.00;99.90
42245;DHT22;27912;51.828;5.688;2023-11-21T08:46:31;9.10;99.90
42245;DHT22;27912;51.828;5.688;2023-11-21T08:48:56;9.10;99.90
42245;DHT22;27912;51.828;5.688;2023-11-21T08:51:22;9.10;99.90
42245;DHT22;27912;51.828;5.688;2023-11-21T08:53:47;9.10;99.90
42245;DHT22;27912;51.828;5.688;2023-11-21T08:56:13;9.20;99.90
42245;DHT22;27912;51.828;5.688;2023-11-21T08:58:39;9.20;99.90
42245;DHT22;27912;51.828;5.688;2023-11-21T09:01:05;9.30;99.90
42245;DHT22;27912;51.828;5.688;2023-11-21T09:03:32;9.30;99.90
42245;DHT22;27912;51.828;5.688;2023-11-21T09:06:00;9.40;99.90
42245;DHT22;27912;51.828;5.688;2023-11-21T09:08:25;9.40;99.90
42245;DHT22;27912;51.828;5.688;2023-11-21T09:10:51;9.40;99.90
42245;DHT22;27912;51.828;5.688;2023-11-21T09:13:17;9.50;99.90
42245;DHT22;27912;51.828;5.688;2023-11-21T09:15:43;9.50;99.90
42245;DHT22;27912;51.828;5.688;2023-11-21T09:18:14;9.50;99.90
42245;DHT22;27912;51.828;5.688;2023-11-21T09:20:41;9.60;99.90
42245;DHT22;27912;51.828;5.688;2023-11-21T09:23:08;9.60;99.90
42245;DHT22;27912;51.828;5.688;2023-11-21T09:25:34;9.60;99.90
42245;DHT22;27912;51.828;5.688;2023-11-21T09:27:59;9.60;99.90
42245;DHT22;27912;51.828;5.688;2023-11-21T09:30:25;9.60;99.90
42245;DHT22;27912;51.828;5.688;2023-11-21T09:32:51;9.60;99.90
42245;DHT22;27912;51.828;5.688;2023-11-21T09:35:17;9.60;99.90
42245;DHT22;27912;51.828;5.688;2023-11-21T09:37:46;9.60;99.90
42245;DHT22;27912;51.828;5.688;2023-11-21T09:40:12;9.70;99.90
42245;DHT22;27912;51.828;5.688;2023-11-21T09:42:40;9.70;99.90
42245;DHT22;27912;51.828;5.688;2023-11-21T09:45:28;9.70;99.90
42245;DHT22;27912;51.828;5.688;2023-11-21T09:47:55;9.80;99.90
42245;DHT22;27912;51.828;5.688;2023-11-21T09:50:21;9.80;99.90
42245;DHT22;27912;51.828;5.688;2023-11-21T09:55:39;9.90;99.90
42245;DHT22;27912;51.828;5.688;2023-11-21T09:58:06;10.00;99.90
42245;DHT22;27912;51.828;5.688;2023-11-21T10:00:33;10.00;99.90
42245;DHT22;27912;51.828;5.688;2023-11-21T10:02:59;10.00;99.90
42245;DHT22;27912;51.828;5.688;2023-11-21T10:05:28;10.10;99.90
42245;DHT22;27912;51.828;5.688;2023-11-21T10:07:56;10.10;99.90
42245;DHT22;27912;51.828;5.688;2023-11-21T10:10:23;10.10;99.90
42245;DHT22;27912;51.828;5.688;2023-11-21T10:12:51;10.00;99.90
42245;DHT22;27912;51.828;5.688;2023-11-21T10:15:24;10.00;99.90
42245;DHT22;27912;51.828;5.688;2023-11-21T10:17:53;10.00;99.90
42245;DHT22;27912;51.828;5.688;2023-11-21T10:20:20;10.10;99.90
42245;DHT22;27912;51.828;5.688;2023-11-21T10:22:46;10.10;99.90
42245;DHT22;27912;51.828;5.688;2023-11-21T10:25:12;10.20;99.90
42245;DHT22;27912;51.828;5.688;2023-11-21T10:27:42;10.20;99.90
42245;DHT22;27912;51.828;5.688;2023-11-21T10:30:09;10.30;99.90
42245;DHT22;27912;51.828;5.688;2023-11-21T10:32:38;10.50;99.90
42245;DHT22;27912;51.828;5.688;2023-11-21T10:35:06;10.70;99.90
42245;DHT22;27912;51.828;5.688;2023-11-21T10:37:41;10.90;99.90
42245;DHT22;27912;51.828;5.688;2023-11-21T10:40:12;11.00;99.90
42245;DHT22;27912;51.828;5.688;2023-11-21T10:42:40;11.10;99.90
42245;DHT22;27912;51.828;5.688;2023-11-21T10:45:07;11.10;99.90
42245;DHT22;27912;51.828;5.688;2023-11-21T10:47:41;11.10;99.90
42245;DHT22;27912;51.828;5.688;2023-11-21T10:50:07;11.00;99.90
42245;DHT22;27912;51.828;5.688;2023-11-21T10:52:39;11.00;99.90
42245;DHT22;27912;51.828;5.688;2023-11-21T10:55:25;11.00;99.90
42245;DHT22;27912;51.828;5.688;2023-11-21T10:57:53;11.00;99.90
42245;DHT22;27912;51.828;5.688;2023-11-21T11:00:20;10.90;99.90
42245;DHT22;27912;51.828;5.688;2023-11-21T11:02:48;10.80;99.90
42245;DHT22;27912;51.828;5.688;2023-11-21T11:05:16;10.90;99.90
42245;DHT22;27912;51.828;5.688;2023-11-21T11:07:44;10.90;99.90
42245;DHT22;27912;51.828;5.688;2023-11-21T11:10:11;10.90;99.90
42245;DHT22;27912;51.828;5.688;2023-11-21T11:12:40;10.90;99.90
42245;DHT22;27912;51.828;5.688;2023-11-21T11:15:08;11.00;99.90
42245;DHT22;27912;51.828;5.688;2023-11-21T11:17:36;11.10;99.90
42245;DHT22;27912;51.828;5.688;2023-11-21T11:20:07;11.10;99.90
42245;DHT22;27912;51.828;5.688;2023-11-21T11:28:48;10.80;99.90
42245;DHT22;27912;51.828;5.688;2023-11-21T11:31:48;10.70;99.90
42245;DHT22;27912;51.828;5.688;2023-11-21T11:34:26;10.70;99.90
42245;DHT22;27912;51.828;5.688;2023-11-21T11:37:01;10.60;99.90
42245;DHT22;27912;51.828;5.688;2023-11-21T11:39:31;10.70;99.90
42245;DHT22;27912;51.828;5.688;2023-11-21T11:42:02;10.60;99.90
42245;DHT22;27912;51.828;5.688;2023-11-21T11:47:31;10.60;99.90
42245;DHT22;27912;51.828;5.688;2023-11-21T11:50:10;10.60;99.90
42245;DHT22;27912;51.828;5.688;2023-11-21T11:52:51;10.60;99.90
42245;DHT22;27912;51.828;5.688;2023-11-21T11:55:20;10.50;99.90
42245;DHT22;27912;51.828;5.688;2023-11-21T11:57:51;10.50;99.90
42245;DHT22;27912;51.828;5.688;2023-11-21T12:02:49;10.60;99.90
42245;DHT22;27912;51.828;5.688;2023-11-21T12:05:16;10.60;99.90
42245;DHT22;27912;51.828;5.688;2023-11-21T12:07:50;10.60;99.90
42245;DHT22;27912;51.828;5.688;2023-11-21T12:10:20;10.60;99.90
42245;DHT22;27912;51.828;5.688;2023-11-21T12:12:47;10.70;99.90
42245;DHT22;27912;51.828;5.688;2023-11-21T12:15:13;10.70;99.90
42245;DHT22;27912;51.828;5.688;2023-11-21T12:17:41;10.70;99.90
42245;DHT22;27912;51.828;5.688;2023-11-21T12:20:07;10.70;99.90
42245;DHT22;27912;51.828;5.688;2023-11-21T12:22:42;10.80;99.90
42245;DHT22;27912;51.828;5.688;2023-11-21T12:25:08;10.70;99.90
42245;DHT22;27912;51.828;5.688;2023-11-21T12:27:34;10.70;99.90
42245;DHT22;27912;51.828;5.688;2023-11-21T12:30:00;10.70;99.90
42245;DHT22;27912;51.828;5.688;2023-11-21T12:32:26;10.70;99.90
42245;DHT22;27912;51.828;5.688;2023-11-21T12:34:52;10.70;99.90
42245;DHT22;27912;51.828;5.688;2023-11-21T12:37:18;10.70;99.90
42245;DHT22;27912;51.828;5.688;2023-11-21T12:39:44;10.70;99.90
42245;DHT22;27912;51.828;5.688;2023-11-21T12:42:09;10.80;99.90
42245;DHT22;27912;51.828;5.688;2023-11-21T12:44:35;10.80;99.90
42245;DHT22;27912;51.828;5.688;2023-11-21T12:47:02;10.80;99.90
42245;DHT22;27912;51.828;5.688;2023-11-21T12:49:28;10.80;99.90
42245;DHT22;27912;51.828;5.688;2023-11-21T12:51:54;10.90;99.90
42245;DHT22;27912;51.828;5.688;2023-11-21T12:54:20;11.00;99.90
42245;DHT22;27912;51.828;5.688;2023-11-21T12:56:46;11.00;99.90
42245;DHT22;27912;51.828;5.688;2023-11-21T12:59:14;10.90;99.90
42245;DHT22;27912;51.828;5.688;2023-11-21T13:01:42;10.90;99.90
42245;DHT22;27912;51.828;5.688;2023-11-21T13:04:08;10.90;99.90
42245;DHT22;27912;51.828;5.688;2023-11-21T13:06:36;10.90;99.90
42245;DHT22;27912;51.828;5.688;2023-11-21T13:09:07;10.90;99.90
42245;DHT22;27912;51.828;5.688;2023-11-21T13:11:36;10.90;99.90
42245;DHT22;27912;51.828;5.688;2023-11-21T13:14:02;10.90;99.90
42245;DHT22;27912;51.828;5.688;2023-11-21T13:16:29;10.90;99.90
42245;DHT22;27912;51.828;5.688;2023-11-21T13:18:55;10.90;99.90
42245;DHT22;27912;51.828;5.688;2023-11-21T13:21:21;10.80;99.90
42245;DHT22;27912;51.828;5.688;2023-11-21T13:23:48;10.80;99.90
42245;DHT22;27912;51.828;5.688;2023-11-21T13:26:16;10.90;99.90
42245;DHT22;27912;51.828;5.688;2023-11-21T13:28:42;10.90;99.90
42245;DHT22;27912;51.828;5.688;2023-11-21T13:31:11;10.80;99.90
42245;DHT22;27912;51.828;5.688;2023-11-21T13:33:56;10.90;99.90
42245;DHT22;27912;51.828;5.688;2023-11-21T13:36:29;10.90;99.90
42245;DHT22;27912;51.828;5.688;2023-11-21T13:38:58;10.90;99.90
42245;DHT22;27912;51.828;5.688;2023-11-21T13:41:24;10.90;99.90
42245;DHT22;27912;51.828;5.688;2023-11-21T13:43:56;10.80;99.90
42245;DHT22;27912;51.828;5.688;2023-11-21T13:46:31;10.80;99.90
42245;DHT22;27912;51.828;5.688;2023-11-21T13:49:02;10.70;99.90
42245;DHT22;27912;51.828;5.688;2023-11-21T13:51:28;10.70;99.90
42245;DHT22;27912;51.828;5.688;2023-11-21T13:54:04;10.70;99.90
42245;DHT22;27912;51.828;5.688;2023-11-21T13:56:35;10.60;99.90
42245;DHT22;27912;51.828;5.688;2023-11-21T13:59:00;10.60;99.90
42245;DHT22;27912;51.828;5.688;2023-11-21T14:01:34;10.60;99.90
42245;DHT22;27912;51.828;5.688;2023-11-21T14:04:18;10.50;99.90
42245;DHT22;27912;51.828;5.688;2023-11-21T14:06:48;10.50;99.90
42245;DHT22;27912;51.828;5.688;2023-11-21T14:09:19;10.50;99.90
42245;DHT22;27912;51.828;5.688;2023-11-21T14:11:55;10.40;99.90
42245;DHT22;27912;51.828;5.688;2023-11-21T14:14:23;10.40;99.90
42245;DHT22;27912;51.828;5.688;2023-11-21T14:16:56;10.40;99.90
42245;DHT22;27912;51.828;5.688;2023-11-21T14:19:23;10.40;99.90
42245;DHT22;27912;51.828;5.688;2023-11-21T14:21:52;10.40;99.90
42245;DHT22;27912;51.828;5.688;2023-11-21T14:24:18;10.30;99.90
42245;DHT22;27912;51.828;5.688;2023-11-21T14:26:47;10.40;99.90
42245;DHT22;27912;51.828;5.688;2023-11-21T14:29:16;10.40;99.90
42245;DHT22;27912;51.828;5.688;2023-11-21T14:31:45;10.40;99.90
42245;DHT22;27912;51.828;5.688;2023-11-21T14:34:11;10.40;99.90
42245;DHT22;27912;51.828;5.688;2023-11-21T14:36:38;10.40;99.90
42245;DHT22;27912;51.828;5.688;2023-11-21T14:39:05;10.40;99.90
42245;DHT22;27912;51.828;5.688;2023-11-21T14:41:37;10.40;99.90
42245;DHT22;27912;51.828;5.688;2023-11-21T14:44:04;10.30;99.90
42245;DHT22;27912;51.828;5.688;2023-11-21T14:46:32;10.40;99.90
42245;DHT22;27912;51.828;5.688;2023-11-21T14:49:00;10.40;99.90
42245;DHT22;27912;51.828;5.688;2023-11-21T14:51:44;10.30;99.90
42245;DHT22;27912;51.828;5.688;2023-11-21T14:54:36;10.30;99.90
42245;DHT22;27912;51.828;5.688;2023-11-21T14:57:12;10.40;99.90
42245;DHT22;27912;51.828;5.688;2023-11-21T14:59:45;10.30;99.90
42245;DHT22;27912;51.828;5.688;2023-11-21T15:02:17;10.20;99.90
42245;DHT22;27912;51.828;5.688;2023-11-21T15:04:48;10.00;99.90
42245;DHT22;27912;51.828;5.688;2023-11-21T15:07:17;9.90;99.90
42245;DHT22;27912;51.828;5.688;2023-11-21T15:09:43;9.90;99.90
42245;DHT22;27912;51.828;5.688;2023-11-21T15:12:11;9.90;99.90
42245;DHT22;27912;51.828;5.688;2023-11-21T15:17:06;9.70;99.90
42245;DHT22;27912;51.828;5.688;2023-11-21T15:19:32;9.70;99.90
42245;DHT22;27912;51.828;5.688;2023-11-21T15:21:58;9.70;99.90
42245;DHT22;27912;51.828;5.688;2023-11-21T15:24:24;9.60;99.90
42245;DHT22;27912;51.828;5.688;2023-11-21T15:26:53;9.60;99.90
42245;DHT22;27912;51.828;5.688;2023-11-21T15:29:19;9.60;99.90
42245;DHT22;27912;51.828;5.688;2023-11-21T15:31:46;9.60;99.90
42245;DHT22;27912;51.828;5.688;2023-11-21T15:34:14;9.60;99.90
42245;DHT22;27912;51.828;5.688;2023-11-21T15:36:41;9.60;99.90
42245;DHT22;27912;51.828;5.688;2023-11-21T15:39:06;9.60;99.90
42245;DHT22;27912;51.828;5.688;2023-11-21T15:41:36;9.50;99.90
42245;DHT22;27912;51.828;5.688;2023-11-21T15:44:04;9.50;99.90
42245;DHT22;27912;51.828;5.688;2023-11-21T15:46:30;9.50;99.90
42245;DHT22;27912;51.828;5.688;2023-11-21T15:48:56;9.50;99.90
42245;DHT22;27912;51.828;5.688;2023-11-21T15:51:22;9.50;99.90
42245;DHT22;27912;51.828;5.688;2023-11-21T15:53:47;9.40;99.90
42245;DHT22;27912;51.828;5.688;2023-11-21T15:56:13;9.40;99.90
42245;DHT22;27912;51.828;5.688;2023-11-21T15:58:39;9.30;99.90
42245;DHT22;27912;51.828;5.688;2023-11-21T16:01:09;9.30;99.90